createdAt,value
2023-02-27T05:23:14.163Z,63.57
2023-02-27T05:26:37.935Z,63.90
2023-02-27T05:29:48.828Z,64.07
2023-02-27T05:33:02.272Z,64.26
2023-02-27T05:36:16.070Z,64.26
2023-02-27T05:39:38.632Z,63.97
2023-02-27T05:42:47.523Z,63.92
2023-02-27T05:45:53.442Z,64.65
2023-02-27T05:49:07.987Z,64.72
2023-02-27T05:52:15.076Z,65.18
2023-02-27T05:55:24.240Z,65.27
2023-02-27T05:58:32.932Z,64.73
2023-02-27T06:01:36.030Z,64.48
2023-02-27T06:04:41.145Z,64.36
2023-02-27T06:07:43.913Z,64.67
2023-02-27T06:10:46.923Z,64.74
2023-02-27T06:13:49.703Z,63.47
2023-02-27T06:16:52.741Z,62.97
2023-02-27T06:19:55.439Z,62.79
2023-02-27T06:22:58.558Z,62.49
2023-02-27T06:26:01.190Z,61.62
2023-02-27T06:29:04.142Z,61.16
2023-02-27T06:32:07.302Z,61.97
2023-02-27T06:35:10.359Z,61.41
2023-02-27T06:38:12.924Z,61.75
2023-02-27T06:41:15.933Z,60.85
2023-02-27T06:44:19.604Z,61.04
2023-02-27T06:47:22.533Z,60.00
2023-02-27T06:50:25.253Z,58.81
2023-02-27T06:53:28.274Z,58.45
2023-02-27T06:56:30.915Z,57.56
2023-02-27T06:59:33.939Z,57.48
2023-02-27T07:02:36.907Z,57.59
2023-02-27T07:05:42.004Z,56.83
2023-02-27T07:09:01.294Z,57.46
2023-02-27T07:12:20.124Z,57.44
2023-02-27T07:15:22.974Z,56.30
2023-02-27T07:18:25.739Z,55.10
2023-02-27T07:21:30.038Z,55.35
2023-02-27T07:31:55.637Z,53.83
2023-02-27T07:34:58.551Z,52.84
2023-02-27T07:38:01.167Z,52.73
2023-02-27T07:41:04.350Z,51.56
2023-02-27T07:44:08.608Z,50.73
2023-02-27T07:47:11.526Z,50.52
2023-02-27T07:50:14.195Z,49.67
2023-02-27T07:53:17.117Z,49.20
2023-02-27T07:56:19.911Z,47.51
2023-02-27T07:59:23.169Z,46.35
2023-02-27T08:02:26.133Z,45.84
2023-02-27T08:05:29.093Z,46.49
2023-02-27T08:08:31.794Z,45.51
2023-02-27T08:11:34.916Z,44.05
2023-02-27T08:14:37.686Z,41.46
2023-02-27T08:17:41.091Z,35.89
2023-02-27T08:20:43.726Z,37.51
2023-02-27T08:23:46.526Z,40.71
2023-02-27T08:26:49.283Z,41.30
2023-02-27T08:29:52.066Z,42.74
2023-02-27T08:32:55.823Z,44.09
2023-02-27T08:35:59.177Z,44.48
2023-02-27T08:39:01.834Z,44.27
2023-02-27T08:49:41.618Z,46.68
2023-02-27T08:52:45.067Z,48.12
2023-02-27T08:55:52.152Z,47.52
2023-02-27T08:59:07.684Z,47.78
2023-02-27T09:02:10.929Z,47.70
2023-02-27T09:05:13.863Z,48.49
2023-02-27T09:08:16.564Z,47.49
2023-02-27T09:11:19.457Z,47.21
2023-02-27T09:14:22.275Z,47.38
2023-02-27T09:17:28.126Z,47.61
2023-02-27T09:24:17.123Z,47.18
2023-02-27T09:27:23.895Z,47.92
2023-02-27T09:30:27.204Z,48.04
2023-02-27T09:37:15.988Z,46.65
2023-02-27T09:40:30.162Z,46.31
2023-02-27T09:43:53.905Z,46.48
2023-02-27T09:46:57.063Z,46.49
2023-02-27T09:50:03.951Z,46.89
2023-02-27T09:53:27.242Z,47.03
2023-02-27T09:56:39.856Z,46.27
2023-02-27T10:00:07.180Z,45.13
2023-02-27T10:03:33.638Z,44.52
2023-02-27T10:06:40.636Z,44.01
2023-02-27T10:09:51.907Z,44.02
2023-02-27T10:13:10.788Z,44.51
2023-02-27T10:16:19.442Z,43.36
2023-02-27T10:19:33.296Z,50.70
2023-02-27T10:22:43.136Z,42.15
2023-02-27T10:25:50.702Z,41.53
2023-02-27T10:28:53.954Z,46.47
2023-02-27T10:32:04.832Z,39.99
2023-02-27T10:35:21.652Z,40.20
2023-02-27T10:38:40.298Z,40.99
2023-02-27T10:41:45.417Z,37.93
2023-02-27T10:44:53.587Z,40.78
2023-02-27T10:47:56.228Z,38.28
2023-02-27T10:51:20.858Z,41.00
2023-02-27T10:54:25.203Z,39.88
2023-02-27T10:57:33.612Z,40.68
2023-02-27T11:00:48.101Z,38.29
2023-02-27T11:03:56.719Z,40.97
2023-02-27T11:07:01.735Z,42.68
2023-02-27T11:10:13.744Z,43.00
2023-02-27T11:13:21.832Z,43.57
2023-02-27T11:16:25.575Z,43.42
2023-02-27T11:19:39.213Z,42.21
2023-02-27T11:22:42.060Z,42.52
2023-02-27T11:25:45.290Z,40.28
2023-02-27T11:29:08.395Z,38.72
2023-02-27T11:32:14.669Z,36.67
2023-02-27T11:35:32.753Z,38.93
2023-02-27T11:38:35.645Z,40.79
2023-02-27T11:41:44.725Z,40.97
2023-02-27T11:44:56.604Z,43.78
2023-02-27T11:48:20.480Z,43.14
2023-02-27T11:51:54.401Z,41.05
2023-02-27T11:55:05.928Z,42.41
2023-02-27T11:58:15.131Z,42.61
2023-02-27T12:01:33.853Z,41.97
2023-02-27T12:04:36.700Z,42.59
2023-02-27T12:07:47.623Z,40.71
2023-02-27T12:18:28.220Z,38.68
2023-02-27T12:29:12.875Z,39.80
2023-02-27T12:32:58.132Z,39.59
2023-02-27T12:36:03.561Z,39.58
2023-02-27T12:39:30.228Z,39.32
2023-02-27T12:42:42.550Z,39.55
2023-02-27T12:46:02.594Z,39.20
2023-02-27T12:49:18.274Z,39.94
2023-02-27T12:52:54.047Z,39.38
2023-02-27T13:03:54.345Z,40.68
2023-02-27T13:07:13.338Z,41.21
2023-02-27T13:17:48.604Z,40.93
2023-02-27T13:21:08.221Z,41.85
2023-02-27T13:24:13.774Z,41.65
2023-02-27T13:27:35.945Z,42.47
2023-02-27T13:30:44.136Z,43.21
2023-02-27T13:34:16.997Z,43.09
2023-02-27T13:37:19.912Z,43.19
2023-02-27T13:40:29.020Z,43.51
2023-02-27T13:43:51.146Z,43.01
2023-02-27T13:46:54.844Z,42.70
2023-02-27T13:50:03.358Z,43.77
2023-02-27T13:53:16.282Z,44.26
2023-02-27T13:56:22.608Z,43.77
2023-02-27T13:59:36.588Z,43.25
2023-02-27T14:02:57.868Z,43.79
2023-02-27T14:06:04.504Z,45.00
2023-02-27T14:09:15.056Z,44.29
2023-02-27T14:12:46.171Z,44.88
2023-02-27T14:15:52.756Z,44.52
2023-02-27T14:18:58.619Z,44.07
2023-02-27T14:22:11.281Z,44.39
2023-02-27T14:25:22.012Z,43.60
2023-02-27T14:28:30.603Z,42.38
2023-02-27T14:31:40.756Z,42.90
2023-02-27T14:34:43.540Z,44.10
2023-02-27T14:37:47.086Z,43.73
2023-02-27T14:41:08.098Z,43.31
2023-02-27T14:44:21.501Z,43.32
2023-02-27T14:47:30.779Z,43.29
2023-02-27T14:50:38.813Z,43.76
2023-02-27T14:53:41.655Z,43.31
2023-02-27T14:56:54.570Z,43.84
2023-02-27T14:59:57.326Z,43.77
2023-02-27T15:03:01.010Z,43.87
2023-02-27T15:06:13.363Z,43.18
2023-02-27T15:09:24.019Z,43.46
2023-02-27T15:12:28.130Z,43.65
2023-02-27T15:15:31.909Z,44.27
2023-02-27T15:18:34.643Z,44.25
2023-02-27T15:21:44.410Z,44.80
2023-02-27T15:24:50.536Z,44.93
2023-02-27T15:27:57.780Z,45.70
2023-02-27T15:31:00.498Z,45.45
2023-02-27T15:34:04.137Z,45.88
2023-02-27T15:37:18.410Z,45.96
2023-02-27T15:40:26.924Z,45.95
2023-02-27T15:43:30.867Z,46.68
2023-02-27T15:46:33.989Z,46.46
2023-02-27T15:49:38.246Z,47.15
2023-02-27T15:52:52.937Z,47.52
2023-02-27T15:56:02.749Z,47.83
2023-02-27T15:59:19.356Z,48.18
2023-02-27T16:02:29.973Z,48.17
2023-02-27T16:05:39.255Z,48.79
2023-02-27T16:08:48.057Z,48.81
2023-02-27T16:12:12.480Z,49.34
2023-02-27T16:15:31.141Z,49.62
2023-02-27T16:18:48.376Z,49.47
2023-02-27T16:22:14.607Z,49.84
2023-02-27T16:25:20.419Z,50.51
2023-02-27T16:28:23.162Z,50.66
2023-02-27T16:31:30.970Z,50.90
2023-02-27T16:34:45.165Z,50.77
2023-02-27T16:37:50.304Z,51.16
2023-02-27T16:40:53.005Z,51.34
2023-02-27T16:43:56.388Z,51.34
